TFM - Tactical Decision Aid (Experimental) INFO Settings

ID: Runway Winds: CIG/VIS Threshold: METAR Board: Map:

Katl - Atlanta-Hartsfield Jackson Intl

Updated at: 0421 UTC 29 Mar 2015
Latest TAF at: 0331 UTC 29 Mar 2015

TAF Board

Time0352Z29/05Z29/06Z29/07Z29/08Z29/09Z29/10Z29/11Z29/12Z29/13Z29/14Z29/15Z29/16Z29/17Z
TypeOBSPRVLPRVLPRVLPRVLPRVLPRVLPRVLPRVLPRVLPRVLPRVLPRVLPRVL
VIS10>6>6>6>6>6>6>6>6>6>6>6>6>6
CIG----------------------------
CoverCLRSKCSKCSKCSKCSKCSKCSKCSKCSKCSKCFEWFEWFEW
FltCatVFRVFRVFRVFRVFRVFRVFRVFRVFRVFRVFRVFRVFRVFR
WX----------------------------
WDir290310350350350350350350808080120120120
WSpd66444444555777
WGst----------------------------
TAF
KATL 290331Z 2904/3006 31006KT P6SM SKC
  FM290600 35004KT P6SM SKC
  FM291200 08005KT P6SM SKC
  FM291500 12007KT P6SM FEW250
  FM292000 16008KT P6SM SCT050
  FM300400 17006KT P6SM BKN050


METAR
KATL 290352Z 29006KT 10SM CLR 04/M07 A3026 RMK AO2 SLP252 T00391072
KATL 290252Z 31006KT 10SM CLR 06/M08 A3024 RMK AO2 SLP246 T00561078 53024

TAF/METAR Board Legend

Potential Impact
  None Marginal Slight Moderate High
Visibility (sm) > ≤X≤ <
Ceiling (100 ft) > ≤X≤ <
Wind Speed (kt) <10 10≤X<20 20≤X<30 ≥30
Wind Gust (kt) <15 15≤X<25 25≤X<35 ≥35
Weather No Wx Reported VCTS -TS,-FZRA TS,FZRA +TS,+FZRA